createdAt,value
2023-02-12T00:11:31.734Z,96.50
2023-02-12T00:26:36.662Z,96.37
2023-02-12T00:41:39.792Z,95.32
2023-02-12T00:56:42.943Z,93.99
2023-02-12T01:11:46.094Z,93.93
2023-02-12T01:26:49.389Z,91.27
2023-02-12T01:41:52.507Z,90.42
2023-02-12T01:56:56.145Z,90.27
2023-02-12T02:12:18.382Z,89.62
2023-02-12T02:27:24.623Z,88.88
2023-02-12T02:42:41.763Z,88.29
2023-02-12T02:57:52.060Z,88.11
2023-02-12T03:13:09.588Z,88.09
2023-02-12T03:28:26.742Z,88.10
2023-02-12T03:43:34.940Z,87.61
2023-02-12T03:58:40.044Z,87.43
2023-02-12T04:14:05.804Z,87.83
2023-02-12T04:29:35.021Z,88.33
2023-02-12T04:44:41.133Z,88.21
2023-02-12T04:59:44.243Z,87.74
2023-02-12T05:14:47.384Z,88.27
2023-02-12T05:29:50.936Z,87.66
2023-02-12T05:44:54.226Z,87.98
2023-02-12T05:59:57.371Z,88.21
2023-02-12T06:15:00.629Z,88.17
2023-02-12T06:30:04.083Z,88.20
2023-02-12T06:45:07.666Z,88.87
2023-02-12T07:00:12.035Z,89.32
2023-02-12T07:15:15.317Z,88.70
2023-02-12T07:30:19.914Z,88.84
2023-02-12T07:45:23.754Z,88.48
2023-02-12T08:00:26.990Z,87.80
2023-02-12T08:15:32.764Z,88.30
2023-02-12T08:30:36.232Z,87.81
2023-02-12T08:45:39.486Z,85.31
2023-02-12T09:00:43.056Z,83.72
2023-02-12T09:15:46.696Z,78.89
2023-02-12T09:30:50.188Z,77.30
2023-02-12T09:46:05.921Z,76.79
2023-02-12T10:01:14.647Z,75.03
2023-02-12T10:16:24.709Z,75.31
2023-02-12T10:31:33.080Z,73.51
2023-02-12T10:46:36.539Z,72.40
2023-02-12T11:01:41.558Z,72.77
2023-02-12T11:16:57.573Z,71.18
2023-02-12T11:32:08.791Z,68.62
2023-02-12T11:47:20.223Z,67.67
2023-02-12T12:02:36.401Z,66.94
2023-02-12T12:18:12.018Z,66.12
2023-02-12T12:33:39.233Z,65.73
2023-02-12T12:48:54.689Z,64.58
2023-02-12T13:04:37.110Z,64.31
2023-02-12T13:19:54.687Z,64.75
2023-02-12T13:34:59.855Z,65.68
2023-02-12T13:50:16.127Z,67.71
2023-02-12T14:05:26.983Z,70.94
2023-02-12T14:20:39.027Z,73.54
2023-02-12T14:35:44.791Z,75.30
2023-02-12T14:50:52.261Z,76.16
2023-02-12T15:06:20.456Z,77.32
2023-02-12T15:21:25.854Z,78.96
2023-02-12T15:36:31.507Z,81.48
2023-02-12T15:51:41.839Z,85.01
2023-02-12T16:06:45.307Z,87.00
2023-02-12T16:22:14.563Z,88.69
2023-02-12T16:37:51.472Z,90.02
2023-02-12T16:53:07.626Z,91.83
2023-02-12T17:08:16.688Z,92.62
2023-02-12T17:23:20.197Z,94.87
2023-02-12T17:38:26.061Z,95.16
2023-02-12T17:53:29.522Z,96.62
2023-02-12T18:08:33.577Z,98.29
2023-02-12T18:23:37.860Z,98.67
2023-02-12T18:38:42.660Z,99.89
2023-02-12T18:53:46.665Z,100.00
2023-02-12T19:08:54.070Z,100.00
2023-02-12T19:23:58.885Z,100.00
2023-02-12T19:39:04.094Z,100.00
2023-02-12T19:54:08.609Z,100.00
2023-02-12T20:09:13.480Z,100.00
2023-02-12T20:24:17.076Z,100.00
2023-02-12T20:39:21.326Z,100.00
2023-02-12T20:54:26.333Z,100.00
2023-02-12T21:09:29.773Z,100.00
2023-02-12T21:24:34.160Z,100.00
2023-02-12T21:39:37.449Z,100.00
2023-02-12T21:54:40.812Z,100.00
2023-02-12T22:09:44.643Z,100.00
2023-02-12T22:24:47.736Z,100.00
2023-02-12T22:39:50.949Z,100.00
2023-02-12T22:54:54.606Z,100.00
2023-02-12T23:09:58.276Z,100.00
2023-02-12T23:25:01.495Z,100.00
2023-02-12T23:40:06.807Z,100.00
2023-02-12T23:55:09.948Z,100.00
